Time;durP1;ratioP1;P1;durP2;ratioP2;P2;SDS_P1;SDS_P2;PMS_P1;PMS_P2;Temp;Humidity;BMP_temperature;BMP_pressure;BME280_temperature;BME280_humidity;BME280_pressure;Samples;Min_cycle;Max_cycle;Signal;HPM_P1;HPM_P2
2021/08/25 00:01:50;;;;;;;4.03;3.60;;;;;;;;;;5083737;28;20025;-82
2021/08/25 00:04:16;;;;;;;5.85;4.40;;;;;;;;;;5066662;28;20059;-82
2021/08/25 00:06:42;;;;;;;5.15;4.28;;;;;;;;;;5060953;28;20029;-82
2021/08/25 00:09:08;;;;;;;4.03;3.60;;;;;;;;;;5061464;28;20350;-82
2021/08/25 00:11:34;;;;;;;4.90;4.40;;;;;;;;;;5060628;28;20135;-82
2021/08/25 00:14:00;;;;;;;4.18;3.70;;;;;;;;;;5062241;28;20035;-81
2021/08/25 00:16:26;;;;;;;6.72;4.13;;;;;;;;;;5060389;28;20055;-82
2021/08/25 00:18:52;;;;;;;3.42;3.05;;;;;;;;;;5060646;28;20060;-82
2021/08/25 00:21:18;;;;;;;4.72;4.13;;;;;;;;;;5061515;28;20033;-82
2021/08/25 00:23:45;;;;;;;6.03;4.38;;;;;;;;;;5061886;28;20531;-81
2021/08/25 00:26:11;;;;;;;6.10;4.47;;;;;;;;;;5061348;28;20064;-81
2021/08/25 00:28:37;;;;;;;3.60;3.30;;;;;;;;;;5069841;28;20024;-82
2021/08/25 00:31:03;;;;;;;5.63;4.13;;;;;;;;;;5081583;28;20032;-81
2021/08/25 00:33:29;;;;;;;3.50;3.17;;;;;;;;;;5079668;28;20062;-81
2021/08/25 00:35:55;;;;;;;6.00;4.03;;;;;;;;;;5060458;28;20090;-82
2021/08/25 00:38:21;;;;;;;4.75;3.78;;;;;;;;;;5061588;28;20082;-82
2021/08/25 00:40:50;;;;;;;4.13;3.72;;;;;;;;;;5061231;28;20031;-82
2021/08/25 00:43:16;;;;;;;4.40;3.80;;;;;;;;;;5061818;28;20377;-81
2021/08/25 00:45:43;;;;;;;6.30;4.05;;;;;;;;;;5064286;28;20394;-81
2021/08/25 00:48:10;;;;;;;6.20;4.20;;;;;;;;;;5063007;28;20020;-81
2021/08/25 00:50:36;;;;;;;6.78;4.78;;;;;;;;;;5071663;28;20039;-82
2021/08/25 00:53:06;;;;;;;6.75;5.40;;;;;;;;;;5062841;28;20017;-82
2021/08/25 00:55:38;;;;;;;6.57;5.57;;;;;;;;;;5061573;28;20013;-83
2021/08/25 00:58:04;;;;;;;5.57;5.05;;;;;;;;;;5061971;28;20105;-82
2021/08/25 01:00:30;;;;;;;6.03;5.18;;;;;;;;;;5077344;28;20023;-83
2021/08/25 01:03:17;;;;;;;7.93;5.93;;;;;;;;;;5081082;28;20029;-83
2021/08/25 01:05:44;;;;;;;7.45;6.10;;;;;;;;;;5080860;28;20028;-81
2021/08/25 01:08:15;;;;;;;5.13;4.63;;;;;;;;;;5069950;28;20045;-82
2021/08/25 01:10:41;;;;;;;7.22;4.97;;;;;;;;;;5060910;28;20041;-82
2021/08/25 01:13:08;;;;;;;6.78;5.57;;;;;;;;;;5061333;28;20052;-81
2021/08/25 01:15:36;;;;;;;5.72;4.80;;;;;;;;;;5062483;28;20090;-82
2021/08/25 01:18:03;;;;;;;7.18;5.75;;;;;;;;;;5060177;28;20021;-81
2021/08/25 01:20:29;;;;;;;6.65;5.95;;;;;;;;;;5061367;28;20502;-82
2021/08/25 01:22:59;;;;;;;6.60;5.82;;;;;;;;;;5060989;28;20044;-81
2021/08/25 01:25:25;;;;;;;6.47;5.78;;;;;;;;;;5060679;28;20017;-82
2021/08/25 01:27:53;;;;;;;5.63;5.00;;;;;;;;;;5064618;28;20027;-81
2021/08/25 01:30:20;;;;;;;5.47;4.95;;;;;;;;;;5072701;28;20044;-82
2021/08/25 01:32:46;;;;;;;13.85;6.40;;;;;;;;;;5063489;28;20074;-82
2021/08/25 01:35:12;;;;;;;8.60;5.53;;;;;;;;;;5061821;28;20029;-82
2021/08/25 01:37:38;;;;;;;6.90;5.72;;;;;;;;;;5060268;28;20091;-82
2021/08/25 01:40:05;;;;;;;5.30;4.80;;;;;;;;;;5061349;28;20054;-82
2021/08/25 01:42:31;;;;;;;6.32;5.47;;;;;;;;;;5058965;28;20044;-82
2021/08/25 01:44:59;;;;;;;7.28;5.57;;;;;;;;;;5060918;28;20021;-82
2021/08/25 01:47:26;;;;;;;6.50;5.47;;;;;;;;;;5060667;28;20025;-82
2021/08/25 01:49:52;;;;;;;5.13;4.63;;;;;;;;;;5059803;28;20104;-82
2021/08/25 01:52:18;;;;;;;5.72;4.82;;;;;;;;;;5060658;28;20051;-82
2021/08/25 01:54:45;;;;;;;6.03;5.25;;;;;;;;;;5061219;28;20036;-82
2021/08/25 01:57:11;;;;;;;6.22;5.30;;;;;;;;;;5061164;28;20453;-82
2021/08/25 01:59:37;;;;;;;6.20;5.60;;;;;;;;;;5067047;28;20104;-82
2021/08/25 02:02:03;;;;;;;5.35;4.85;;;;;;;;;;5065103;28;20017;-84
2021/08/25 02:04:29;;;;;;;4.88;4.43;;;;;;;;;;5075297;28;20017;-83
2021/08/25 02:06:55;;;;;;;6.15;5.40;;;;;;;;;;5074917;28;20080;-82
2021/08/25 02:09:22;;;;;;;6.18;5.57;;;;;;;;;;5075782;28;20041;-83
2021/08/25 02:11:48;;;;;;;5.72;5.07;;;;;;;;;;5076807;28;20081;-82
2021/08/25 02:14:14;;;;;;;5.50;4.97;;;;;;;;;;5076254;28;20037;-82
2021/08/25 02:16:41;;;;;;;7.68;5.72;;;;;;;;;;5068195;28;20036;-83
2021/08/25 02:19:07;;;;;;;6.78;5.60;;;;;;;;;;5063862;28;20536;-82
2021/08/25 02:21:33;;;;;;;5.72;5.13;;;;;;;;;;5063211;28;20037;-83
2021/08/25 02:23:59;;;;;;;5.40;4.90;;;;;;;;;;5062499;28;20025;-83
2021/08/25 02:26:25;;;;;;;5.78;4.68;;;;;;;;;;5063014;28;20082;-83
2021/08/25 02:28:53;;;;;;;6.82;6.05;;;;;;;;;;5069424;28;20041;-83
2021/08/25 02:31:19;;;;;;;5.47;4.95;;;;;;;;;;5064373;28;20025;-82
2021/08/25 02:33:45;;;;;;;6.25;5.28;;;;;;;;;;5076746;28;20032;-82
2021/08/25 02:36:12;;;;;;;6.00;5.40;;;;;;;;;;5067312;28;20025;-82
2021/08/25 02:38:39;;;;;;;6.22;5.28;;;;;;;;;;5062536;28;20092;-83
2021/08/25 02:41:06;;;;;;;7.28;4.80;;;;;;;;;;5067375;28;20032;-82
2021/08/25 02:43:33;;;;;;;8.00;6.57;;;;;;;;;;5063605;28;20075;-82
2021/08/25 02:45:59;;;;;;;9.93;6.88;;;;;;;;;;5065763;28;20024;-81
2021/08/25 02:48:25;;;;;;;7.40;6.22;;;;;;;;;;5063321;28;20025;-82
2021/08/25 02:50:51;;;;;;;8.15;7.35;;;;;;;;;;5065656;28;20029;-82
2021/08/25 02:53:17;;;;;;;6.45;5.70;;;;;;;;;;5063075;28;20040;-82
2021/08/25 02:55:46;;;;;;;7.30;6.45;;;;;;;;;;5065958;28;20036;-82
2021/08/25 02:58:13;;;;;;;8.52;6.85;;;;;;;;;;5073172;28;20029;-81
2021/08/25 03:00:40;;;;;;;8.38;7.00;;;;;;;;;;5073295;28;20020;-81
2021/08/25 03:03:06;;;;;;;7.38;6.57;;;;;;;;;;5078501;28;20033;-82
2021/08/25 03:05:32;;;;;;;9.98;6.95;;;;;;;;;;5079158;28;20036;-82
2021/08/25 03:07:58;;;;;;;8.65;7.45;;;;;;;;;;5077039;28;20043;-82
2021/08/25 03:10:24;;;;;;;9.93;7.55;;;;;;;;;;5074031;28;20029;-82
2021/08/25 03:12:50;;;;;;;8.98;7.40;;;;;;;;;;5065255;28;20077;-82
2021/08/25 03:15:16;;;;;;;10.27;7.13;;;;;;;;;;5063437;28;20516;-82
2021/08/25 03:17:42;;;;;;;8.10;7.18;;;;;;;;;;5065488;28;20386;-82
2021/08/25 03:20:09;;;;;;;7.70;6.57;;;;;;;;;;5065619;28;20063;-82
2021/08/25 03:22:35;;;;;;;7.18;6.00;;;;;;;;;;5061059;28;20128;-81
2021/08/25 03:25:01;;;;;;;7.82;6.97;;;;;;;;;;5063234;28;20492;-81
2021/08/25 03:27:27;;;;;;;8.98;7.13;;;;;;;;;;5064468;28;20025;-81
2021/08/25 03:29:53;;;;;;;8.35;7.15;;;;;;;;;;5071145;28;20042;-81
2021/08/25 03:32:19;;;;;;;13.88;8.65;;;;;;;;;;5081793;28;20540;-81
2021/08/25 03:34:46;;;;;;;8.13;6.88;;;;;;;;;;5082304;28;20052;-81
2021/08/25 03:37:12;;;;;;;10.40;7.40;;;;;;;;;;5081691;28;20078;-82
2021/08/25 03:39:38;;;;;;;9.73;7.55;;;;;;;;;;5075832;28;20490;-82
2021/08/25 03:42:04;;;;;;;8.60;6.85;;;;;;;;;;5060132;28;20128;-82
2021/08/25 03:44:30;;;;;;;8.95;6.50;;;;;;;;;;5061464;28;20035;-82
2021/08/25 03:46:57;;;;;;;5.85;5.07;;;;;;;;;;5063759;28;20043;-82
2021/08/25 03:49:23;;;;;;;6.78;5.95;;;;;;;;;;5062663;28;20036;-82
2021/08/25 03:51:49;;;;;;;8.00;6.97;;;;;;;;;;5062692;28;20033;-82
2021/08/25 03:54:15;;;;;;;9.45;7.85;;;;;;;;;;5063416;28;20072;-82
2021/08/25 03:56:41;;;;;;;8.35;7.43;;;;;;;;;;5061524;28;20424;-82
2021/08/25 03:59:07;;;;;;;7.55;6.72;;;;;;;;;;5072516;28;20112;-82
2021/08/25 04:01:33;;;;;;;10.05;7.28;;;;;;;;;;5067875;28;20025;-82
2021/08/25 04:04:05;;;;;;;9.88;8.52;;;;;;;;;;5063205;28;20052;-82
2021/08/25 04:06:31;;;;;;;8.52;6.90;;;;;;;;;;5063563;28;20085;-83
2021/08/25 04:08:57;;;;;;;7.10;6.38;;;;;;;;;;5061072;28;20033;-82
2021/08/25 04:11:23;;;;;;;8.57;7.07;;;;;;;;;;5063051;28;20031;-82
2021/08/25 04:13:49;;;;;;;7.93;6.57;;;;;;;;;;5061561;28;20024;-82
2021/08/25 04:16:15;;;;;;;6.63;5.97;;;;;;;;;;5062224;28;20037;-82
2021/08/25 04:18:41;;;;;;;7.60;6.20;;;;;;;;;;5063326;28;20036;-82
2021/08/25 04:21:07;;;;;;;8.93;6.70;;;;;;;;;;5063443;28;20025;-82
2021/08/25 04:23:33;;;;;;;7.70;6.43;;;;;;;;;;5066741;28;20045;-82
2021/08/25 04:25:59;;;;;;;7.43;6.72;;;;;;;;;;5063075;28;20029;-82
2021/08/25 04:28:25;;;;;;;7.45;6.70;;;;;;;;;;5070992;28;20075;-82
2021/08/25 04:30:51;;;;;;;8.98;5.97;;;;;;;;;;5065572;28;20337;-82
2021/08/25 04:33:17;;;;;;;6.30;5.70;;;;;;;;;;5062707;28;20528;-81
2021/08/25 04:35:43;;;;;;;5.72;5.20;;;;;;;;;;5066478;28;20025;-80
2021/08/25 04:38:09;;;;;;;5.45;4.95;;;;;;;;;;5061330;28;20042;-82
2021/08/25 04:40:35;;;;;;;6.30;5.55;;;;;;;;;;5061703;28;20370;-84
2021/08/25 04:43:02;;;;;;;8.15;6.93;;;;;;;;;;5064397;28;20051;-82
2021/08/25 04:45:29;;;;;;;9.23;7.25;;;;;;;;;;5061233;28;20092;-82
2021/08/25 04:47:55;;;;;;;7.78;6.97;;;;;;;;;;5065512;28;20040;-82
2021/08/25 04:50:22;;;;;;;10.60;8.38;;;;;;;;;;5064046;28;20055;-79
2021/08/25 04:52:48;;;;;;;8.98;8.07;;;;;;;;;;5064535;28;20100;-83
2021/08/25 04:55:14;;;;;;;13.40;9.63;;;;;;;;;;5067692;28;20037;-85
2021/08/25 04:57:40;;;;;;;10.45;8.70;;;;;;;;;;5070268;28;20044;-83
2021/08/25 05:00:06;;;;;;;7.75;6.95;;;;;;;;;;5067192;28;20514;-83
2021/08/25 05:02:32;;;;;;;9.23;7.30;;;;;;;;;;5071551;28;20048;-84
2021/08/25 05:04:58;;;;;;;7.68;6.85;;;;;;;;;;5077030;28;20013;-86
2021/08/25 05:07:27;;;;;;;7.57;6.80;;;;;;;;;;5076530;28;20017;-84
2021/08/25 05:09:54;;;;;;;9.15;6.60;;;;;;;;;;5074469;28;20028;-83
2021/08/25 05:12:20;;;;;;;9.35;7.38;;;;;;;;;;5064869;28;20044;-84
2021/08/25 05:14:46;;;;;;;9.80;6.90;;;;;;;;;;5064839;28;20093;-84
2021/08/25 05:17:12;;;;;;;6.85;5.70;;;;;;;;;;5066047;28;20056;-83
2021/08/25 05:19:38;;;;;;;8.68;6.40;;;;;;;;;;5067581;28;20025;-85
2021/08/25 05:22:06;;;;;;;8.88;7.35;;;;;;;;;;5066815;28;20040;-84
2021/08/25 05:24:33;;;;;;;7.25;6.55;;;;;;;;;;5060915;28;20096;-78
2021/08/25 05:26:59;;;;;;;9.68;8.40;;;;;;;;;;5073446;28;20025;-79
2021/08/25 05:29:25;;;;;;;7.78;6.93;;;;;;;;;;5058470;28;20021;-78
2021/08/25 05:31:51;;;;;;;9.85;8.77;;;;;;;;;;5058998;28;20429;-79
2021/08/25 05:34:17;;;;;;;9.65;7.88;;;;;;;;;;5057327;28;20680;-79
2021/08/25 05:36:43;;;;;;;10.85;8.13;;;;;;;;;;5065760;28;20016;-79
2021/08/25 05:39:10;;;;;;;8.57;7.05;;;;;;;;;;5069487;28;20032;-78
2021/08/25 05:41:36;;;;;;;10.60;8.45;;;;;;;;;;5056000;28;20549;-78
2021/08/25 05:44:04;;;;;;;9.00;7.63;;;;;;;;;;5057873;28;20029;-79
2021/08/25 05:46:34;;;;;;;11.60;7.07;;;;;;;;;;5064108;28;20025;-79
2021/08/25 05:49:00;;;;;;;8.60;7.63;;;;;;;;;;5069406;28;20067;-79
2021/08/25 05:51:26;;;;;;;8.35;7.50;;;;;;;;;;5067967;28;20032;-80
2021/08/25 05:53:52;;;;;;;11.63;7.47;;;;;;;;;;5060349;28;20025;-80
2021/08/25 05:56:19;;;;;;;7.28;6.07;;;;;;;;;;5058559;28;20084;-80
2021/08/25 05:58:45;;;;;;;10.88;7.22;;;;;;;;;;5052503;28;20111;-81
2021/08/25 06:01:15;;;;;;;7.45;6.75;;;;;;;;;;5060963;28;20025;-82
2021/08/25 06:03:42;;;;;;;8.43;6.18;;;;;;;;;;5057522;28;20033;-80
2021/08/25 06:06:11;;;;;;;6.53;5.85;;;;;;;;;;5051507;28;20079;-82
2021/08/25 06:08:37;;;;;;;8.20;5.82;;;;;;;;;;5069083;28;20017;-80
2021/08/25 06:11:03;;;;;;;7.95;6.57;;;;;;;;;;5066649;28;20090;-82
2021/08/25 06:13:29;;;;;;;8.23;6.57;;;;;;;;;;5066073;28;20132;-80
2021/08/25 06:15:55;;;;;;;8.00;6.05;;;;;;;;;;5068300;28;20048;-81
2021/08/25 06:18:21;;;;;;;7.28;5.63;;;;;;;;;;5069129;28;20029;-81
2021/08/25 06:20:47;;;;;;;6.20;5.47;;;;;;;;;;5071383;28;20059;-80
2021/08/25 06:23:13;;;;;;;8.43;6.38;;;;;;;;;;5071153;28;20073;-81
2021/08/25 06:25:40;;;;;;;7.03;5.88;;;;;;;;;;5067134;28;20024;-80
2021/08/25 06:28:07;;;;;;;5.72;4.78;;;;;;;;;;5077216;28;20025;-80
2021/08/25 06:30:33;;;;;;;7.38;5.00;;;;;;;;;;5090721;28;20024;-80
2021/08/25 06:32:59;;;;;;;9.55;5.18;;;;;;;;;;5089985;28;20029;-78
2021/08/25 06:35:25;;;;;;;5.90;5.00;;;;;;;;;;5086554;28;20088;-78
2021/08/25 06:37:51;;;;;;;8.93;4.80;;;;;;;;;;5084763;28;20086;-79
2021/08/25 06:40:17;;;;;;;6.93;4.05;;;;;;;;;;5095599;28;20128;-80
2021/08/25 06:42:43;;;;;;;5.43;3.88;;;;;;;;;;5093855;28;20068;-79
2021/08/25 06:45:10;;;;;;;4.15;3.60;;;;;;;;;;5100801;28;20016;-81
2021/08/25 06:47:36;;;;;;;4.93;3.78;;;;;;;;;;5098465;28;20024;-79
2021/08/25 06:50:03;;;;;;;6.75;5.18;;;;;;;;;;5096605;28;20081;-80
2021/08/25 06:52:29;;;;;;;8.82;4.32;;;;;;;;;;5097123;28;20520;-79
2021/08/25 06:54:55;;;;;;;6.10;4.43;;;;;;;;;;5096602;28;20037;-79
2021/08/25 06:57:21;;;;;;;4.18;3.47;;;;;;;;;;5083491;28;20038;-80
2021/08/25 06:59:47;;;;;;;4.88;3.95;;;;;;;;;;5079909;28;20036;-80
2021/08/25 07:02:13;;;;;;;6.93;3.95;;;;;;;;;;5103056;28;20024;-80
2021/08/25 07:04:45;;;;;;;8.00;3.70;;;;;;;;;;5089928;28;20025;-78
2021/08/25 07:07:11;;;;;;;3.95;3.50;;;;;;;;;;5073395;28;20110;-80
2021/08/25 07:09:37;;;;;;;6.28;4.22;;;;;;;;;;5065313;28;20036;-81
2021/08/25 07:12:03;;;;;;;5.00;4.00;;;;;;;;;;5065710;28;20074;-82
2021/08/25 07:14:29;;;;;;;4.13;3.35;;;;;;;;;;5063329;28;20043;-80
2021/08/25 07:16:56;;;;;;;6.00;4.30;;;;;;;;;;5061368;28;20029;-80
2021/08/25 07:19:22;;;;;;;7.05;4.05;;;;;;;;;;5061603;28;20048;-82
2021/08/25 07:21:48;;;;;;;8.02;3.70;;;;;;;;;;5068539;28;20029;-79
2021/08/25 07:24:14;;;;;;;4.70;3.80;;;;;;;;;;5070840;28;20029;-78
2021/08/25 07:26:40;;;;;;;5.20;3.78;;;;;;;;;;5070604;28;20032;-78
2021/08/25 07:29:06;;;;;;;5.40;4.18;;;;;;;;;;5080962;28;20052;-79
2021/08/25 07:31:33;;;;;;;7.38;4.25;;;;;;;;;;5087252;28;20082;-79
2021/08/25 07:33:59;;;;;;;7.10;3.95;;;;;;;;;;5071845;28;20104;-79
2021/08/25 07:36:25;;;;;;;9.07;4.20;;;;;;;;;;5062735;28;20063;-80
2021/08/25 07:38:51;;;;;;;6.70;3.65;;;;;;;;;;5061721;28;20064;-79
2021/08/25 07:41:18;;;;;;;6.20;3.63;;;;;;;;;;5062440;28;20044;-81
2021/08/25 07:43:44;;;;;;;6.25;4.30;;;;;;;;;;5063428;28;20363;-80
2021/08/25 07:46:10;;;;;;;6.15;3.33;;;;;;;;;;5061419;28;20485;-79
2021/08/25 07:48:37;;;;;;;5.68;3.10;;;;;;;;;;5062662;28;20021;-80
2021/08/25 07:51:08;;;;;;;6.15;3.70;;;;;;;;;;5062320;28;20029;-79
2021/08/25 07:53:34;;;;;;;3.92;3.25;;;;;;;;;;5064769;28;20043;-80
2021/08/25 07:56:00;;;;;;;4.72;2.88;;;;;;;;;;5073397;28;20025;-80
2021/08/25 07:58:26;;;;;;;4.88;3.17;;;;;;;;;;5083776;28;20338;-79
2021/08/25 08:00:53;;;;;;;7.90;3.67;;;;;;;;;;5070023;28;20040;-80
2021/08/25 08:03:19;;;;;;;4.93;3.03;;;;;;;;;;5060170;28;20033;-78
2021/08/25 08:05:46;;;;;;;7.05;3.33;;;;;;;;;;5062770;28;20037;-79
2021/08/25 08:08:13;;;;;;;8.63;3.97;;;;;;;;;;5062925;28;20009;-79
2021/08/25 08:10:39;;;;;;;5.60;4.18;;;;;;;;;;5060273;28;20390;-79
2021/08/25 08:13:05;;;;;;;5.18;4.00;;;;;;;;;;5059594;28;20066;-80
2021/08/25 08:15:33;;;;;;;4.50;3.50;;;;;;;;;;5061597;28;20033;-80
2021/08/25 08:18:07;;;;;;;3.97;3.00;;;;;;;;;;5060481;28;20527;-80
2021/08/25 08:20:33;;;;;;;3.67;3.33;;;;;;;;;;5062906;28;20036;-80
2021/08/25 08:22:59;;;;;;;6.30;3.05;;;;;;;;;;5064261;28;20509;-81
2021/08/25 08:25:25;;;;;;;4.85;3.70;;;;;;;;;;5065551;28;20101;-80
2021/08/25 08:27:51;;;;;;;7.28;3.58;;;;;;;;;;5066336;28;20033;-80
2021/08/25 08:30:17;;;;;;;4.85;3.40;;;;;;;;;;5077147;28;20029;-79
2021/08/25 08:32:43;;;;;;;4.72;3.60;;;;;;;;;;5076310;28;20032;-79
2021/08/25 08:35:09;;;;;;;4.75;3.35;;;;;;;;;;5076383;28;20028;-79
2021/08/25 08:37:35;;;;;;;4.57;3.50;;;;;;;;;;5075045;28;20017;-78
2021/08/25 08:40:03;;;;;;;4.97;3.40;;;;;;;;;;5063358;28;20027;-80
2021/08/25 08:42:34;;;;;;;5.75;3.05;;;;;;;;;;5063167;28;20478;-80
2021/08/25 08:45:02;;;;;;;5.68;3.17;;;;;;;;;;5061589;28;20095;-81
2021/08/25 08:47:28;;;;;;;5.15;3.45;;;;;;;;;;5058690;28;20401;-80
2021/08/25 08:49:55;;;;;;;3.85;3.05;;;;;;;;;;5062288;28;20015;-81
2021/08/25 08:52:22;;;;;;;4.15;3.20;;;;;;;;;;5059764;28;20067;-81
2021/08/25 08:54:50;;;;;;;5.20;3.53;;;;;;;;;;5060743;28;20020;-80
2021/08/25 08:57:16;;;;;;;6.30;3.72;;;;;;;;;;5062867;28;20033;-79
2021/08/25 08:59:42;;;;;;;6.18;3.40;;;;;;;;;;5066065;28;20057;-80
2021/08/25 09:02:09;;;;;;;6.35;3.00;;;;;;;;;;5059549;28;20020;-79
2021/08/25 09:04:36;;;;;;;5.40;3.78;;;;;;;;;;5061091;28;20021;-83
2021/08/25 09:07:03;;;;;;;3.88;3.00;;;;;;;;;;5060759;28;20070;-79
2021/08/25 09:09:49;;;;;;;5.15;3.72;;;;;;;;;;5060492;28;20044;-80
2021/08/25 09:12:15;;;;;;;4.93;3.25;;;;;;;;;;5053437;28;20041;-78
2021/08/25 09:14:41;;;;;;;5.60;4.07;;;;;;;;;;5061874;28;20393;-79
2021/08/25 09:17:07;;;;;;;7.78;3.92;;;;;;;;;;5058202;28;20414;-80
2021/08/25 09:19:38;;;;;;;6.82;3.20;;;;;;;;;;5057937;28;20032;-81
2021/08/25 09:22:18;;;;;;;7.40;3.83;;;;;;;;;;5058325;28;20063;-79
2021/08/25 09:24:44;;;;;;;5.35;3.38;;;;;;;;;;5058915;28;20457;-79
2021/08/25 09:27:11;;;;;;;5.13;3.45;;;;;;;;;;5058755;28;20021;-80
2021/08/25 09:29:38;;;;;;;7.57;4.72;;;;;;;;;;5057024;28;20067;-79
2021/08/25 09:32:16;;;;;;;4.53;3.20;;;;;;;;;;5061727;28;20083;-80
2021/08/25 09:34:42;;;;;;;4.30;3.15;;;;;;;;;;5060081;28;20441;-81
2021/08/25 09:37:09;;;;;;;5.20;3.38;;;;;;;;;;5060079;28;20108;-80
2021/08/25 09:39:36;;;;;;;5.82;3.85;;;;;;;;;;5060439;28;20312;-77
2021/08/25 09:42:04;;;;;;;6.57;4.43;;;;;;;;;;5060397;28;20033;-80
2021/08/25 09:44:30;;;;;;;4.28;3.22;;;;;;;;;;5070323;28;20067;-80
2021/08/25 09:46:56;;;;;;;4.10;3.35;;;;;;;;;;5060573;28;20025;-81
2021/08/25 09:49:22;;;;;;;6.40;3.78;;;;;;;;;;5059495;28;20074;-80
2021/08/25 09:51:50;;;;;;;6.20;3.20;;;;;;;;;;5058057;28;20144;-80
2021/08/25 09:54:18;;;;;;;4.00;3.33;;;;;;;;;;5060330;28;20075;-80
2021/08/25 09:56:44;;;;;;;7.80;3.88;;;;;;;;;;5059760;28;20021;-80
2021/08/25 09:59:12;;;;;;;6.43;3.78;;;;;;;;;;5057868;28;20028;-80
2021/08/25 10:01:39;;;;;;;7.72;4.38;;;;;;;;;;5058237;28;20373;-80
2021/08/25 10:04:14;;;;;;;6.15;4.30;;;;;;;;;;5062123;28;20036;-82
2021/08/25 10:06:41;;;;;;;6.18;3.42;;;;;;;;;;5064389;28;20040;-81
2021/08/25 10:09:08;;;;;;;7.97;4.18;;;;;;;;;;5059967;28;20340;-81
2021/08/25 10:11:35;;;;;;;4.38;3.50;;;;;;;;;;5060145;28;20068;-81
2021/08/25 10:14:06;;;;;;;4.90;3.35;;;;;;;;;;5071931;28;20044;-80
2021/08/25 10:16:52;;;;;;;6.07;3.90;;;;;;;;;;5059800;28;20032;-80
2021/08/25 10:19:25;;;;;;;4.30;3.65;;;;;;;;;;5041221;28;20083;-81
2021/08/25 10:21:51;;;;;;;4.35;3.50;;;;;;;;;;5041731;28;20026;-81
2021/08/25 10:24:18;;;;;;;4.47;3.20;;;;;;;;;;5047397;28;20025;-81
2021/08/25 10:26:56;;;;;;;4.78;3.05;;;;;;;;;;5059591;28;20068;-80
2021/08/25 10:29:22;;;;;;;4.25;3.47;;;;;;;;;;5057251;28;20466;-80
2021/08/25 10:31:48;;;;;;;5.15;3.53;;;;;;;;;;5058946;28;20028;-80
2021/08/25 10:34:20;;;;;;;6.30;4.18;;;;;;;;;;5057371;28;20033;-80
2021/08/25 10:36:46;;;;;;;6.38;4.35;;;;;;;;;;5060863;28;20032;-80
2021/08/25 10:39:31;;;;;;;4.40;3.58;;;;;;;;;;5057383;28;20028;-80
2021/08/25 10:41:58;;;;;;;6.60;3.63;;;;;;;;;;5058778;28;20025;-80
2021/08/25 10:44:39;;;;;;;6.25;3.83;;;;;;;;;;5069534;28;20119;-80
2021/08/25 10:47:06;;;;;;;7.50;3.60;;;;;;;;;;5078510;28;20025;-80
2021/08/25 10:49:33;;;;;;;4.45;3.28;;;;;;;;;;5066538;28;20040;-80
2021/08/25 10:52:06;;;;;;;4.10;3.38;;;;;;;;;;5077012;28;20017;-81
2021/08/25 10:54:35;;;;;;;4.50;3.65;;;;;;;;;;5062883;28;20080;-80
2021/08/25 10:57:08;;;;;;;5.88;3.30;;;;;;;;;;5071816;28;20025;-80
2021/08/25 10:59:34;;;;;;;5.28;3.78;;;;;;;;;;5085520;28;20032;-80
2021/08/25 11:02:00;;;;;;;7.78;4.03;;;;;;;;;;5063774;28;20068;-81
2021/08/25 11:04:27;;;;;;;4.47;3.38;;;;;;;;;;5066553;28;20029;-79
2021/08/25 11:06:56;;;;;;;6.40;3.65;;;;;;;;;;5066431;28;20055;-79
2021/08/25 11:09:26;;;;;;;5.55;3.85;;;;;;;;;;5065292;28;20032;-80
2021/08/25 11:11:55;;;;;;;9.82;4.72;;;;;;;;;;5062282;28;20033;-79
2021/08/25 11:14:23;;;;;;;6.68;4.25;;;;;;;;;;5067567;28;20025;-79
2021/08/25 11:16:50;;;;;;;6.72;3.70;;;;;;;;;;5061888;28;20061;-80
2021/08/25 11:21:42;;;;;;;5.05;3.53;;;;;;;;;;5079311;22;20135;-78
2021/08/25 11:24:08;;;;;;;4.38;3.28;;;;;;;;;;5060235;28;20045;-78
2021/08/25 11:26:34;;;;;;;5.45;4.03;;;;;;;;;;5059072;28;20025;-78
2021/08/25 11:29:00;;;;;;;5.07;3.65;;;;;;;;;;5061100;28;20436;-79
2021/08/25 11:31:26;;;;;;;5.13;3.78;;;;;;;;;;5058366;28;20032;-79
2021/08/25 11:33:53;;;;;;;6.18;3.67;;;;;;;;;;5056143;28;20029;-79
2021/08/25 11:36:19;;;;;;;5.03;3.63;;;;;;;;;;5059436;28;20047;-79
2021/08/25 11:38:45;;;;;;;5.45;3.15;;;;;;;;;;5055760;28;20024;-79
2021/08/25 11:41:11;;;;;;;4.18;3.50;;;;;;;;;;5038629;28;20052;-79
2021/08/25 11:43:47;;;;;;;6.18;4.47;;;;;;;;;;5038440;28;20108;-79
2021/08/25 11:46:23;;;;;;;8.68;4.07;;;;;;;;;;5066246;28;20449;-79
2021/08/25 11:48:50;;;;;;;5.55;4.07;;;;;;;;;;5075267;28;20048;-80
2021/08/25 11:51:16;;;;;;;6.47;3.65;;;;;;;;;;5062476;28;20027;-79
2021/08/25 11:53:43;;;;;;;6.38;4.28;;;;;;;;;;5068844;28;20028;-79
2021/08/25 11:56:09;;;;;;;5.65;3.92;;;;;;;;;;5070068;28;20033;-79
2021/08/25 11:58:39;;;;;;;6.90;4.10;;;;;;;;;;5067175;28;20040;-79
2021/08/25 12:01:05;;;;;;;5.70;4.32;;;;;;;;;;5061098;28;20393;-79
2021/08/25 12:03:41;;;;;;;5.65;4.18;;;;;;;;;;5059196;28;20466;-78
2021/08/25 12:06:07;;;;;;;6.70;3.55;;;;;;;;;;5059699;28;20033;-80
2021/08/25 12:08:41;;;;;;;5.00;3.78;;;;;;;;;;5060252;28;20021;-80
2021/08/25 12:11:08;;;;;;;6.70;4.10;;;;;;;;;;5058822;28;20323;-79
2021/08/25 12:13:34;;;;;;;6.05;4.00;;;;;;;;;;5058736;28;20032;-79
2021/08/25 12:16:00;;;;;;;7.70;3.95;;;;;;;;;;5056090;28;20036;-79
2021/08/25 12:18:27;;;;;;;5.05;4.25;;;;;;;;;;5074004;28;20017;-78
2021/08/25 12:20:54;;;;;;;5.55;4.07;;;;;;;;;;5063853;28;20491;-79
2021/08/25 12:23:22;;;;;;;6.85;4.35;;;;;;;;;;5062354;28;20108;-79
2021/08/25 12:25:51;;;;;;;5.75;3.72;;;;;;;;;;5072340;28;20035;-79
2021/08/25 12:28:30;;;;;;;5.00;3.80;;;;;;;;;;5078220;28;20036;-79
2021/08/25 12:31:44;;;;;;;4.43;3.60;;;;;;;;;;5072763;28;20027;-79
2021/08/25 12:34:06;;;;;;;6.22;4.32;;;;;;;;;;5060817;28;20025;-78
2021/08/25 12:36:33;;;;;;;5.65;4.10;;;;;;;;;;5059255;28;20024;-77
2021/08/25 12:39:12;;;;;;;4.57;3.55;;;;;;;;;;5058082;28;20188;-78
2021/08/25 12:41:42;;;;;;;6.55;4.55;;;;;;;;;;5045414;28;20017;-78
2021/08/25 12:44:09;;;;;;;8.20;3.90;;;;;;;;;;5057798;28;20021;-78
2021/08/25 12:46:53;;;;;;;5.20;3.47;;;;;;;;;;5058988;28;20052;-79
2021/08/25 12:49:23;;;;;;;7.07;4.80;;;;;;;;;;5086868;28;20040;-80
2021/08/25 12:51:50;;;;;;;5.90;4.25;;;;;;;;;;5070499;28;20091;-81
2021/08/25 12:54:17;;;;;;;6.85;4.78;;;;;;;;;;5081104;28;20037;-79
2021/08/25 12:56:43;;;;;;;6.10;4.53;;;;;;;;;;5070639;28;20082;-80
2021/08/25 12:59:09;;;;;;;5.65;4.22;;;;;;;;;;5063025;28;20096;-80
2021/08/25 13:01:35;;;;;;;6.93;4.38;;;;;;;;;;5077418;22;20037;-81
2021/08/25 13:04:01;;;;;;;8.25;4.80;;;;;;;;;;5057917;28;20028;-79
2021/08/25 13:06:27;;;;;;;6.55;4.70;;;;;;;;;;5057125;28;20025;-81
2021/08/25 13:08:53;;;;;;;9.15;4.95;;;;;;;;;;5057485;28;20028;-82
2021/08/25 13:11:19;;;;;;;6.45;4.55;;;;;;;;;;5060287;28;20032;-81
2021/08/25 13:13:45;;;;;;;10.52;4.43;;;;;;;;;;5058016;28;20043;-81
2021/08/25 13:16:15;;;;;;;5.53;4.35;;;;;;;;;;5077632;22;20037;-76
2021/08/25 13:18:41;;;;;;;5.68;4.45;;;;;;;;;;5052961;28;20104;-77
2021/08/25 13:21:07;;;;;;;5.63;4.13;;;;;;;;;;5060749;28;20023;-77
2021/08/25 13:23:33;;;;;;;6.20;4.93;;;;;;;;;;5056814;28;20116;-78
2021/08/25 13:25:59;;;;;;;5.28;4.22;;;;;;;;;;5048899;28;20045;-77
2021/08/25 13:28:25;;;;;;;5.38;3.88;;;;;;;;;;5032679;28;20018;-77
2021/08/25 13:30:51;;;;;;;5.85;4.15;;;;;;;;;;5031570;28;20032;-77
2021/08/25 13:33:17;;;;;;;7.13;4.45;;;;;;;;;;5033219;28;20061;-77
2021/08/25 13:35:43;;;;;;;6.90;4.90;;;;;;;;;;5048162;28;20052;-78
2021/08/25 13:38:09;;;;;;;6.80;4.43;;;;;;;;;;5047700;28;20025;-77
2021/08/25 13:40:37;;;;;;;6.05;4.38;;;;;;;;;;5032824;28;20032;-78
2021/08/25 13:43:03;;;;;;;7.25;4.70;;;;;;;;;;5033041;28;20025;-76
2021/08/25 13:45:29;;;;;;;7.35;4.70;;;;;;;;;;5047911;28;20364;-77
2021/08/25 13:47:55;;;;;;;5.72;4.10;;;;;;;;;;5032754;28;20018;-77
2021/08/25 13:50:21;;;;;;;7.55;4.88;;;;;;;;;;5032620;28;20029;-77
2021/08/25 13:52:47;;;;;;;7.45;4.68;;;;;;;;;;5041062;28;20025;-77
2021/08/25 13:55:14;;;;;;;8.45;4.72;;;;;;;;;;5033545;28;20554;-77
2021/08/25 13:57:40;;;;;;;7.15;4.30;;;;;;;;;;5032657;28;20041;-77
2021/08/25 14:00:06;;;;;;;6.78;4.40;;;;;;;;;;5032522;28;20040;-77
2021/08/25 14:02:32;;;;;;;8.90;4.72;;;;;;;;;;5048639;28;20474;-78
2021/08/25 14:04:58;;;;;;;6.53;4.85;;;;;;;;;;5035823;28;20033;-77
2021/08/25 14:07:24;;;;;;;7.03;4.45;;;;;;;;;;5055638;28;20073;-77
2021/08/25 14:09:50;;;;;;;7.00;4.88;;;;;;;;;;5040467;28;20026;-77
2021/08/25 14:12:16;;;;;;;8.32;5.68;;;;;;;;;;5032784;28;20087;-77
2021/08/25 14:14:45;;;;;;;8.77;4.85;;;;;;;;;;5048336;28;20037;-77
2021/08/25 14:17:11;;;;;;;4.72;3.88;;;;;;;;;;5032389;28;20045;-76
2021/08/25 14:19:37;;;;;;;7.55;4.88;;;;;;;;;;5032437;28;20026;-76
2021/08/25 14:22:03;;;;;;;8.27;5.32;;;;;;;;;;5041643;28;20037;-75
2021/08/25 14:24:29;;;;;;;7.72;4.65;;;;;;;;;;5046484;28;20033;-75
2021/08/25 14:26:55;;;;;;;9.88;5.05;;;;;;;;;;5034486;28;20103;-76
2021/08/25 14:29:22;;;;;;;5.68;4.50;;;;;;;;;;5035227;28;20524;-76
2021/08/25 14:31:48;;;;;;;7.45;5.18;;;;;;;;;;5035891;28;20040;-76
2021/08/25 14:34:14;;;;;;;6.28;5.22;;;;;;;;;;5035682;28;20052;-76
2021/08/25 14:36:40;;;;;;;8.02;4.47;;;;;;;;;;5032572;28;20037;-76
2021/08/25 14:39:06;;;;;;;4.82;3.42;;;;;;;;;;5035260;28;20025;-76
2021/08/25 14:41:33;;;;;;;6.25;3.67;;;;;;;;;;5035443;28;20060;-76
2021/08/25 14:43:59;;;;;;;6.63;4.15;;;;;;;;;;5035608;28;20049;-77
2021/08/25 14:46:26;;;;;;;8.38;4.65;;;;;;;;;;5035519;28;20025;-76